createdAt,value
2022-08-01T00:01:34.237Z,100214.81
2022-08-01T00:04:02.814Z,100210.41
2022-08-01T00:06:31.333Z,100212.16
2022-08-01T00:08:59.725Z,100212.16
2022-08-01T00:11:28.272Z,100219.25
2022-08-01T00:13:56.695Z,100213.06
2022-08-01T00:16:26.416Z,100210.41
2022-08-01T00:18:55.978Z,100213.06
2022-08-01T00:21:24.360Z,100214.84
2022-08-01T00:23:52.761Z,100209.56
2022-08-01T00:26:21.230Z,100214.03
2022-08-01T00:28:49.563Z,100220.25
2022-08-01T00:31:17.918Z,100211.41
2022-08-01T00:33:47.659Z,100214.09
2022-08-01T00:36:16.014Z,100218.50
2022-08-01T00:38:44.467Z,100221.19
2022-08-01T00:41:12.917Z,100218.56
2022-08-01T00:43:41.338Z,100211.47
2022-08-01T00:46:09.730Z,100211.47
2022-08-01T00:48:38.103Z,100208.84
2022-08-01T00:51:09.342Z,100208.84
2022-08-01T00:53:51.129Z,100206.19
2022-08-01T00:56:21.330Z,100204.44
2022-08-01T00:58:49.806Z,100206.25
2022-08-01T01:01:21.462Z,100200.94
2022-08-01T01:03:59.711Z,100206.25
2022-08-01T01:06:43.781Z,100205.31
2022-08-01T01:09:27.166Z,100204.47
2022-08-01T01:12:04.970Z,100202.72
2022-08-01T01:14:38.818Z,100200.94
2022-08-01T01:17:09.833Z,100202.72
2022-08-01T01:19:43.991Z,100206.25
2022-08-01T01:22:27.908Z,100207.16
2022-08-01T01:25:25.573Z,100203.59
2022-08-01T01:28:04.242Z,100200.06
2022-08-01T01:30:34.986Z,100196.53
2022-08-01T01:33:05.577Z,100204.50
2022-08-01T01:35:37.511Z,100209.81
2022-08-01T01:38:09.909Z,100200.09
2022-08-01T01:40:40.010Z,100216.03
2022-08-01T01:43:12.379Z,100208.94
2022-08-01T01:45:43.031Z,100211.63
2022-08-01T01:48:12.513Z,100209.84
2022-08-01T01:50:42.299Z,100211.59
2022-08-01T01:53:15.409Z,100217.81
2022-08-01T01:55:49.110Z,100218.66
2022-08-01T01:58:19.186Z,100216.03
2022-08-01T02:00:51.137Z,100216.94
2022-08-01T02:03:21.718Z,100216.06
2022-08-01T02:05:53.166Z,100225.78
2022-08-01T02:08:24.204Z,100208.09
2022-08-01T02:11:12.246Z,100208.97
2022-08-01T02:13:42.554Z,100207.19
2022-08-01T02:16:13.230Z,100212.50
2022-08-01T02:18:42.879Z,100212.53
2022-08-01T02:21:15.909Z,100213.41
2022-08-01T02:23:45.570Z,100211.66
2022-08-01T02:26:17.186Z,100211.66
2022-08-01T02:28:49.614Z,100211.66
2022-08-01T02:31:23.519Z,100201.03
2022-08-01T02:33:58.963Z,100209.88
2022-08-01T02:36:31.948Z,100206.34
2022-08-01T02:39:03.704Z,100208.13
2022-08-01T02:41:35.461Z,100204.59
2022-08-01T02:44:07.228Z,100199.28
2022-08-01T02:46:40.516Z,100201.91
2022-08-01T02:49:11.290Z,100197.50
2022-08-01T02:51:41.879Z,100194.84
2022-08-01T02:54:12.825Z,100189.53
2022-08-01T02:56:43.663Z,100195.72
2022-08-01T02:59:16.069Z,100193.97
2022-08-01T03:01:50.108Z,100189.53
2022-08-01T03:04:20.180Z,100191.31
2022-08-01T03:06:50.185Z,100194.84
2022-08-01T03:09:20.310Z,100191.31
2022-08-01T03:11:50.109Z,100196.63
2022-08-01T03:14:19.297Z,100200.16
2022-08-01T03:16:49.992Z,100201.06
2022-08-01T03:19:22.510Z,100202.84
2022-08-01T03:21:52.703Z,100204.63
2022-08-01T03:24:23.612Z,100198.41
2022-08-01T03:26:54.584Z,100200.19
2022-08-01T03:29:27.336Z,100204.63
2022-08-01T03:31:57.889Z,100201.06
2022-08-01T03:34:26.583Z,100199.31
2022-08-01T03:37:01.602Z,100204.59
2022-08-01T03:39:33.524Z,100213.44
2022-08-01T03:42:08.098Z,100213.44
2022-08-01T03:44:39.939Z,100217.88
2022-08-01T03:47:11.486Z,100218.75
2022-08-01T03:49:43.550Z,100220.53
2022-08-01T03:52:13.369Z,100218.75
2022-08-01T03:54:46.270Z,100211.69
2022-08-01T03:57:35.473Z,100218.78
2022-08-01T04:00:08.577Z,100214.34
2022-08-01T04:02:43.675Z,100213.47
2022-08-01T04:05:12.767Z,100212.59
2022-08-01T04:07:43.907Z,100211.72
2022-08-01T04:10:13.026Z,100211.72
2022-08-01T04:12:41.478Z,100217.03
2022-08-01T04:15:10.564Z,100217.03
2022-08-01T04:17:38.927Z,100217.03
2022-08-01T04:20:09.890Z,100223.22
2022-08-01T04:22:39.754Z,100210.84
2022-08-01T04:25:14.361Z,100209.94
2022-08-01T04:27:51.554Z,100217.03
2022-08-01T04:30:25.438Z,100217.91
2022-08-01T04:32:56.394Z,100226.75
2022-08-01T04:36:03.945Z,100221.44
2022-08-01T04:38:28.171Z,100231.19
2022-08-01T04:40:58.755Z,100232.06
2022-08-01T04:43:27.242Z,100237.34
2022-08-01T04:45:57.088Z,100235.59
2022-08-01T04:48:26.771Z,100248.84
2022-08-01T04:50:56.515Z,100244.44
2022-08-01T04:53:24.866Z,100248.88
2022-08-01T04:55:53.230Z,100247.09
2022-08-01T04:58:21.612Z,100242.66
2022-08-01T05:00:50.100Z,100243.50
2022-08-01T05:03:18.617Z,100255.91
2022-08-01T05:05:46.966Z,100250.63
2022-08-01T05:08:17.287Z,100252.38
2022-08-01T05:10:45.883Z,100255.00
2022-08-01T05:13:14.296Z,100257.66
2022-08-01T05:15:42.636Z,100265.63
2022-08-01T05:18:11.030Z,100268.28
2022-08-01T05:20:39.546Z,100277.13
2022-08-01T05:23:09.276Z,100268.28
2022-08-01T05:25:57.636Z,100270.06
2022-08-01T05:28:26.701Z,100277.16
2022-08-01T05:30:55.752Z,100271.84
2022-08-01T05:33:24.307Z,100271.84
2022-08-01T05:35:52.655Z,100278.94
2022-08-01T05:38:21.073Z,100278.03
2022-08-01T05:40:50.822Z,100283.38
2022-08-01T05:43:19.178Z,100275.41
2022-08-01T05:45:48.159Z,100284.25
2022-08-01T05:48:16.495Z,100278.94
2022-08-01T05:50:44.919Z,100278.94
2022-08-01T05:53:13.275Z,100279.81
2022-08-01T05:55:43.738Z,100284.25
2022-08-01T05:58:13.489Z,100283.38
2022-08-01T06:00:42.035Z,100289.56
2022-08-01T06:03:12.236Z,100282.47
2022-08-01T06:05:40.655Z,100286.91
2022-08-01T06:08:08.995Z,100291.34
2022-08-01T06:10:37.753Z,100294.88
2022-08-01T06:13:06.174Z,100294.00
2022-08-01T06:15:36.018Z,100289.56
2022-08-01T06:18:04.760Z,100299.28
2022-08-01T06:20:33.177Z,100289.56
2022-08-01T06:23:05.807Z,100290.44
2022-08-01T06:25:50.216Z,100293.09
2022-08-01T06:28:20.591Z,100298.38
2022-08-01T06:30:50.368Z,100290.41
2022-08-01T06:33:18.751Z,100285.94
2022-08-01T06:35:47.118Z,100284.22
2022-08-01T06:38:15.474Z,100281.53
2022-08-01T06:40:43.826Z,100280.63
2022-08-01T06:43:12.650Z,100291.25
2022-08-01T06:45:41.671Z,100290.34
2022-08-01T06:48:11.464Z,100288.56
2022-08-01T06:50:39.791Z,100292.09
2022-08-01T06:53:08.121Z,100289.44
2022-08-01T06:55:36.524Z,100279.69
2022-08-01T06:58:04.927Z,100286.75
2022-08-01T07:00:33.358Z,100277.88
2022-08-01T07:03:01.754Z,100276.06
2022-08-01T07:05:32.051Z,100273.38
2022-08-01T07:08:00.766Z,100274.25
2022-08-01T07:10:29.195Z,100276.00
2022-08-01T07:12:57.545Z,100276.88
2022-08-01T07:15:27.594Z,100275.09
2022-08-01T07:17:56.120Z,100269.78
2022-08-01T07:20:24.556Z,100279.50
2022-08-01T07:22:54.590Z,100275.06
2022-08-01T07:25:25.384Z,100279.47
2022-08-01T07:27:53.793Z,100271.47
2022-08-01T07:30:22.238Z,100276.78
2022-08-01T07:32:50.670Z,100280.31
2022-08-01T07:35:19.238Z,100282.09
2022-08-01T07:37:49.053Z,100285.59
2022-08-01T07:40:20.001Z,100284.69
2022-08-01T07:42:49.003Z,100287.31
2022-08-01T07:45:17.538Z,100288.19
2022-08-01T07:47:46.486Z,100298.72
2022-08-01T07:50:14.952Z,100297.78
2022-08-01T07:52:43.928Z,100296.88
2022-08-01T07:55:16.384Z,100299.50
2022-08-01T07:57:46.754Z,100297.66
2022-08-01T08:00:15.876Z,100295.88
2022-08-01T08:02:45.048Z,100304.69
2022-08-01T08:05:13.815Z,100294.94
2022-08-01T08:07:42.215Z,100294.84
2022-08-01T08:10:11.437Z,100290.34
2022-08-01T08:12:39.873Z,100296.50
2022-08-01T08:15:10.800Z,100293.75
2022-08-01T08:17:39.399Z,100296.38
2022-08-01T08:20:09.763Z,100306.97
2022-08-01T08:22:39.173Z,100298.94
2022-08-01T08:25:08.816Z,100302.41
2022-08-01T08:27:37.806Z,100306.81
2022-08-01T08:30:08.665Z,100309.47
2022-08-01T08:32:38.819Z,100305.88
2022-08-01T08:35:08.422Z,100309.38
2022-08-01T08:37:47.432Z,100311.06
2022-08-01T08:40:17.887Z,100313.72
2022-08-01T08:42:47.356Z,100312.81
2022-08-01T08:45:15.758Z,100316.34
2022-08-01T08:47:47.947Z,100317.19
2022-08-01T08:50:16.854Z,100310.97
2022-08-01T08:52:46.673Z,100319.81
2022-08-01T08:55:17.437Z,100322.44
2022-08-01T08:57:49.406Z,100328.66
2022-08-01T09:00:18.129Z,100323.34
2022-08-01T09:02:50.187Z,100330.41
2022-08-01T09:05:26.389Z,100334.00
2022-08-01T09:08:09.315Z,100326.00
2022-08-01T09:10:38.203Z,100330.47
2022-08-01T09:13:12.641Z,100328.66
2022-08-01T09:15:43.545Z,100332.16
2022-08-01T09:21:17.346Z,100340.88
2022-08-01T09:23:53.340Z,100344.38
2022-08-01T09:26:29.873Z,100337.25
2022-08-01T09:29:00.461Z,100336.31
2022-08-01T09:31:38.488Z,100341.63
2022-08-01T09:34:08.471Z,100340.72
2022-08-01T09:36:52.298Z,100342.47
2022-08-01T09:39:25.562Z,100342.44
2022-08-01T09:41:55.099Z,100341.47
2022-08-01T09:44:42.205Z,100343.25
2022-08-01T09:47:13.437Z,100353.00
2022-08-01T09:49:51.815Z,100351.19
2022-08-01T09:52:25.926Z,100356.47
2022-08-01T09:54:58.974Z,100354.66
2022-08-01T09:57:28.917Z,100344.81
2022-08-01T10:00:00.791Z,100349.22
2022-08-01T10:02:32.951Z,100350.91
2022-08-01T10:05:08.321Z,100354.38
2022-08-01T10:07:58.979Z,100356.06
2022-08-01T10:10:29.057Z,100350.63
2022-08-01T10:13:01.277Z,100342.47
2022-08-01T10:15:37.322Z,100335.25
2022-08-01T10:18:16.674Z,100337.81
2022-08-01T10:20:56.491Z,100349.34
2022-08-01T10:23:40.886Z,100343.00
2022-08-01T10:26:12.345Z,100342.84
2022-08-01T10:28:42.832Z,100340.84
2022-08-01T10:31:14.787Z,100346.91
2022-08-01T10:33:50.630Z,100351.19
2022-08-01T10:36:27.182Z,100346.56
2022-08-01T10:38:59.121Z,100347.34
2022-08-01T10:41:30.312Z,100350.84
2022-08-01T10:43:59.505Z,100344.56
2022-08-01T10:46:28.295Z,100344.47
2022-08-01T10:49:03.552Z,100332.78
2022-08-01T10:51:52.199Z,100339.84
2022-08-01T10:54:26.981Z,100334.38
2022-08-01T10:56:57.344Z,100336.00
2022-08-01T10:59:51.167Z,100342.88
2022-08-01T11:02:32.338Z,100332.09
2022-08-01T11:05:06.657Z,100340.88
2022-08-01T11:07:48.378Z,100338.06
2022-08-01T11:10:26.529Z,100323.63
2022-08-01T11:12:54.962Z,100330.59
2022-08-01T11:15:29.594Z,100336.78
2022-08-01T11:18:02.858Z,100331.31
2022-08-01T11:20:41.613Z,100328.53
2022-08-01T11:23:23.404Z,100334.63
2022-08-01T11:26:13.329Z,100321.09
2022-08-01T11:29:04.696Z,100316.47
2022-08-01T11:31:38.369Z,100314.47
2022-08-01T11:34:07.268Z,100318.78
2022-08-01T11:36:58.470Z,100311.47
2022-08-01T11:39:24.458Z,100305.06
2022-08-01T11:41:55.501Z,100304.94
2022-08-01T11:44:28.333Z,100304.75
2022-08-01T11:47:08.768Z,100304.59
2022-08-01T11:49:51.607Z,100305.25
2022-08-01T11:52:25.720Z,100307.78
2022-08-01T11:54:56.835Z,100312.16
2022-08-01T11:57:34.441Z,100315.81
2022-08-01T12:00:09.162Z,100318.56
2022-08-01T12:02:45.734Z,100319.56
2022-08-01T12:05:17.356Z,100317.66
2022-08-01T12:07:47.349Z,100320.22
2022-08-01T12:10:17.386Z,100325.44
2022-08-01T12:12:49.387Z,100328.75
2022-08-01T12:15:19.095Z,100324.97
2022-08-01T12:17:58.631Z,100323.84
2022-08-01T12:20:33.793Z,100326.38
2022-08-01T12:23:06.105Z,100332.59
2022-08-01T12:25:34.570Z,100325.28
2022-08-01T12:28:06.123Z,100334.06
2022-08-01T12:30:42.488Z,100326.97
2022-08-01T12:33:13.096Z,100324.16
2022-08-01T12:35:43.652Z,100316.91
2022-08-01T12:38:17.140Z,100323.09
2022-08-01T12:40:51.482Z,100324.03
2022-08-01T12:43:29.593Z,100321.47
2022-08-01T12:46:00.362Z,100315.19
2022-08-01T12:48:32.973Z,100324.03
2022-08-01T12:51:03.223Z,100311.41
2022-08-01T12:53:40.511Z,100317.66
2022-08-01T12:56:11.994Z,100313.25
2022-08-01T12:58:41.986Z,100320.19
2022-08-01T13:01:12.424Z,100325.31
2022-08-01T13:03:41.758Z,100320.34
2022-08-01T13:06:15.698Z,100318.88
2022-08-01T13:08:45.467Z,100327.41
2022-08-01T13:11:18.995Z,100327.34
2022-08-01T13:13:50.664Z,100326.59
2022-08-01T13:16:30.658Z,100324.06
2022-08-01T13:19:07.718Z,100320.47
2022-08-01T13:21:52.543Z,100324.94
2022-08-01T13:24:27.869Z,100314.09
2022-08-01T13:26:59.714Z,100321.22
2022-08-01T13:29:34.283Z,100323.97
2022-08-01T13:32:13.594Z,100325.06
2022-08-01T13:35:03.284Z,100319.75
2022-08-01T13:37:32.358Z,100326.91
2022-08-01T13:40:00.896Z,100320.72
2022-08-01T13:42:30.422Z,100324.47
2022-08-01T13:45:00.154Z,100328.25
2022-08-01T13:47:32.093Z,100323.06
2022-08-01T13:50:03.751Z,100326.69
2022-08-01T13:52:33.238Z,100322.25
2022-08-01T13:55:02.297Z,100332.06
2022-08-01T13:57:36.613Z,100330.22
2022-08-01T14:00:10.189Z,100324.75
2022-08-01T14:02:41.279Z,100330.13
2022-08-01T14:05:10.002Z,100330.19
2022-08-01T14:07:38.434Z,100330.22
2022-08-01T14:10:19.544Z,100327.44
2022-08-01T14:12:49.497Z,100329.09
2022-08-01T14:15:38.631Z,100331.78
2022-08-01T14:18:09.319Z,100342.47
2022-08-01T14:20:39.081Z,100339.00
2022-08-01T14:23:08.858Z,100333.72
2022-08-01T14:26:01.668Z,100335.47
2022-08-01T14:28:28.410Z,100335.31
2022-08-01T14:30:58.517Z,100334.22
2022-08-01T14:33:27.200Z,100330.56
2022-08-01T14:36:06.114Z,100333.16
2022-08-01T14:38:46.304Z,100331.38
2022-08-01T14:41:15.571Z,100325.06
2022-08-01T14:43:43.997Z,100329.44
2022-08-01T14:46:14.127Z,100332.97
2022-08-01T14:48:42.531Z,100338.34
2022-08-01T14:51:11.120Z,100329.34
2022-08-01T14:53:40.363Z,100332.97
2022-08-01T14:56:12.587Z,100328.59
2022-08-01T14:58:40.997Z,100325.94
2022-08-01T15:01:09.447Z,100333.94
2022-08-01T15:03:39.228Z,100336.66
2022-08-01T15:06:10.484Z,100338.50
2022-08-01T15:08:39.218Z,100329.72
2022-08-01T15:11:09.532Z,100336.19
2022-08-01T15:13:42.792Z,100339.94
2022-08-01T15:16:12.119Z,100345.44
2022-08-01T15:18:42.967Z,100344.66
2022-08-01T15:21:17.223Z,100342.13
2022-08-01T15:23:53.546Z,100345.06
2022-08-01T15:26:21.973Z,100343.47
2022-08-01T15:28:50.400Z,100352.50
2022-08-01T15:31:19.301Z,100349.91
2022-08-01T15:33:49.067Z,100341.84
2022-08-01T15:36:25.793Z,100347.25
2022-08-01T15:38:54.999Z,100344.66
2022-08-01T15:41:23.377Z,100356.25
2022-08-01T15:43:55.872Z,100350.13
2022-08-01T15:46:24.777Z,100358.28
2022-08-01T15:48:54.629Z,100351.31
2022-08-01T15:51:23.576Z,100365.72
2022-08-01T15:53:51.961Z,100366.78
2022-08-01T15:56:20.328Z,100367.75
2022-08-01T15:58:51.236Z,100359.72
2022-08-01T16:01:20.318Z,100364.00
2022-08-01T16:03:48.790Z,100353.13
2022-08-01T16:06:18.546Z,100358.25
2022-08-01T16:08:46.901Z,100359.97
2022-08-01T16:11:15.536Z,100353.69
2022-08-01T16:13:43.929Z,100359.97
2022-08-01T16:16:16.729Z,100355.56
2022-08-01T16:18:45.153Z,100369.09
2022-08-01T16:21:24.928Z,100365.66
2022-08-01T16:23:53.321Z,100365.81
2022-08-01T16:26:27.942Z,100359.78
2022-08-01T16:28:57.945Z,100358.88
2022-08-01T16:31:36.376Z,100359.72
2022-08-01T16:34:15.357Z,100352.44
2022-08-01T16:36:45.221Z,100358.53
2022-08-01T16:39:13.596Z,100353.91
2022-08-01T16:41:41.998Z,100354.50
2022-08-01T16:44:10.392Z,100354.22
2022-08-01T16:46:38.786Z,100358.47
2022-08-01T16:49:07.569Z,100362.03
2022-08-01T16:51:39.564Z,100362.13
2022-08-01T16:54:25.414Z,100354.28
2022-08-01T16:57:08.357Z,100353.50
2022-08-01T16:59:41.777Z,100353.56
2022-08-01T17:02:11.731Z,100354.53
2022-08-01T17:04:43.003Z,100363.53
2022-08-01T17:07:11.468Z,100359.16
2022-08-01T17:09:43.570Z,100359.22
2022-08-01T17:12:13.224Z,100358.38
2022-08-01T17:14:50.522Z,100359.34
2022-08-01T17:17:19.097Z,100358.50
2022-08-01T17:19:47.766Z,100358.47
2022-08-01T17:22:16.276Z,100360.03
2022-08-01T17:24:46.154Z,100358.00
2022-08-01T17:27:14.776Z,100356.88
2022-08-01T17:29:44.494Z,100360.31
2022-08-01T17:32:14.195Z,100368.41
2022-08-01T17:34:42.970Z,100363.13
2022-08-01T17:37:11.681Z,100363.31
2022-08-01T17:39:41.253Z,100365.22
2022-08-01T17:42:12.368Z,100366.19
2022-08-01T17:44:41.699Z,100354.66
2022-08-01T17:47:24.190Z,100367.53
2022-08-01T17:50:04.289Z,100367.84
2022-08-01T17:52:33.394Z,100365.38
2022-08-01T17:55:02.725Z,100363.88
2022-08-01T17:57:32.733Z,100359.63
2022-08-01T18:00:01.136Z,100364.31
2022-08-01T18:02:29.597Z,100365.34
2022-08-01T18:04:59.133Z,100363.75
2022-08-01T18:08:00.284Z,100367.59
2022-08-01T18:10:16.886Z,100370.47
2022-08-01T18:12:46.757Z,100371.53
2022-08-01T18:15:15.411Z,100371.72
2022-08-01T18:17:44.349Z,100373.63
2022-08-01T18:20:13.386Z,100379.16
2022-08-01T18:22:42.290Z,100375.72
2022-08-01T18:25:11.302Z,100378.50
2022-08-01T18:28:22.406Z,100375.06
2022-08-01T18:30:32.127Z,100386.75
2022-08-01T18:33:00.858Z,100385.97
2022-08-01T18:35:51.642Z,100385.19
2022-08-01T18:38:17.763Z,100399.59
2022-08-01T18:40:48.501Z,100396.19
2022-08-01T18:43:16.990Z,100402.53
2022-08-01T18:45:46.707Z,100394.66
2022-08-01T18:48:15.079Z,100394.75
2022-08-01T18:50:43.460Z,100394.91
2022-08-01T18:53:11.790Z,100407.47
2022-08-01T18:55:40.261Z,100408.47
2022-08-01T18:58:08.720Z,100409.47
2022-08-01T19:00:37.107Z,100414.94
2022-08-01T19:03:07.748Z,100401.69
2022-08-01T19:05:37.003Z,100404.50
2022-08-01T19:08:07.930Z,100412.63
2022-08-01T19:10:37.184Z,100417.16
2022-08-01T19:13:05.727Z,100415.56
2022-08-01T19:15:34.578Z,100413.00
2022-08-01T19:18:03.264Z,100416.66
2022-08-01T19:20:33.260Z,100417.63
2022-08-01T19:23:21.611Z,100420.44
2022-08-01T19:25:55.394Z,100417.94
2022-08-01T19:28:26.384Z,100426.00
2022-08-01T19:30:56.363Z,100439.44
2022-08-01T19:33:24.731Z,100444.03
2022-08-01T19:35:54.499Z,100453.94
2022-08-01T19:38:23.407Z,100455.84
2022-08-01T19:40:51.914Z,100455.91
2022-08-01T19:43:22.391Z,100457.75
2022-08-01T19:45:51.822Z,100452.50
2022-08-01T19:48:20.280Z,100454.41
2022-08-01T19:50:50.872Z,100454.47
2022-08-01T19:53:24.992Z,100454.56
2022-08-01T19:55:54.202Z,100454.59
2022-08-01T19:58:27.351Z,100452.88
2022-08-01T20:00:56.905Z,100463.63
2022-08-01T20:03:27.964Z,100463.66
2022-08-01T20:05:56.757Z,100468.19
2022-08-01T20:08:27.290Z,100471.78
2022-08-01T20:10:56.215Z,100469.19
2022-08-01T20:13:25.003Z,100479.91
2022-08-01T20:15:54.209Z,100464.91
2022-08-01T20:18:23.165Z,100483.56
2022-08-01T20:20:53.161Z,100465.88
2022-08-01T20:23:23.540Z,100471.25
2022-08-01T20:25:58.345Z,100485.50
2022-08-01T20:28:29.094Z,100489.97
2022-08-01T20:31:05.035Z,100490.03
2022-08-01T20:33:36.041Z,100488.25
2022-08-01T20:36:12.285Z,100502.47
2022-08-01T20:38:54.554Z,100491.91
2022-08-01T20:41:26.064Z,100493.72
2022-08-01T20:43:56.664Z,100488.41
2022-08-01T20:46:26.903Z,100488.47
2022-08-01T20:48:57.584Z,100492.03
2022-08-01T20:51:26.602Z,100486.75
2022-08-01T20:53:56.399Z,100488.56
2022-08-01T20:56:37.790Z,100483.28
2022-08-01T20:59:10.309Z,100476.22
2022-08-01T21:01:47.740Z,100476.22
2022-08-01T21:04:28.519Z,100478.94
2022-08-01T21:07:03.785Z,100484.25
2022-08-01T21:09:39.477Z,100481.63
2022-08-01T21:12:20.962Z,100494.03
2022-08-01T21:14:52.957Z,100480.75
2022-08-01T21:17:33.806Z,100485.22
2022-08-01T21:20:07.534Z,100489.66
2022-08-01T21:22:39.094Z,100490.53
2022-08-01T21:25:10.950Z,100483.50
2022-08-01T21:27:41.362Z,100485.28
2022-08-01T21:30:10.775Z,100484.41
2022-08-01T21:32:43.559Z,100481.75
2022-08-01T21:35:16.607Z,100474.69
2022-08-01T21:37:52.507Z,100483.56
2022-08-01T21:40:22.822Z,100486.22
2022-08-01T21:42:54.426Z,100485.34
2022-08-01T21:45:24.883Z,100484.47
2022-08-01T21:47:54.230Z,100481.81
2022-08-01T21:50:23.287Z,100477.38
2022-08-01T21:53:04.972Z,100488.03
2022-08-01T21:55:38.527Z,100482.72
2022-08-01T21:58:33.358Z,100477.41
2022-08-01T22:01:08.090Z,100480.91
2022-08-01T22:03:42.530Z,100484.44
2022-08-01T22:06:10.743Z,100484.44
2022-08-01T22:08:49.616Z,100489.75
2022-08-01T22:11:22.155Z,100480.91
2022-08-01T22:13:54.950Z,100492.38
2022-08-01T22:16:24.401Z,100497.69
2022-08-01T22:18:53.531Z,100492.41
2022-08-01T22:21:22.608Z,100496.78
2022-08-01T22:24:16.615Z,100493.25
2022-08-01T22:26:47.302Z,100493.25
2022-08-01T22:29:18.004Z,100497.66
2022-08-01T22:31:48.268Z,100498.53
2022-08-01T22:34:19.623Z,100495.00
2022-08-01T22:36:52.003Z,100497.66
2022-08-01T22:39:21.394Z,100491.44
2022-08-01T22:42:01.280Z,100491.44
2022-08-01T22:44:42.840Z,100495.84
2022-08-01T22:47:21.099Z,100495.84
2022-08-01T22:49:58.190Z,100494.03
2022-08-01T22:52:30.039Z,100497.59
2022-08-01T22:55:03.986Z,100493.13
2022-08-01T22:57:47.340Z,100482.53
2022-08-01T23:00:20.299Z,100482.50
2022-08-01T23:02:52.850Z,100481.59
2022-08-01T23:05:23.438Z,100481.56
2022-08-01T23:07:54.222Z,100476.25
2022-08-01T23:10:24.790Z,100478.91
2022-08-01T23:12:54.859Z,100478.00
2022-08-01T23:15:25.663Z,100482.41
2022-08-01T23:17:55.682Z,100483.25
2022-08-01T23:20:25.059Z,100486.78
2022-08-01T23:22:54.613Z,100488.53
2022-08-01T23:25:24.422Z,100489.41
2022-08-01T23:28:04.937Z,100488.50
2022-08-01T23:30:36.323Z,100487.63
2022-08-01T23:33:05.117Z,100480.56
2022-08-01T23:35:39.013Z,100474.34
2022-08-01T23:38:08.294Z,100479.63
2022-08-01T23:40:39.550Z,100475.22
2022-08-01T23:43:16.661Z,100478.72
2022-08-01T23:46:03.746Z,100479.59
2022-08-01T23:48:38.097Z,100476.03
2022-08-01T23:51:07.652Z,100481.31
2022-08-01T23:53:38.584Z,100487.47
2022-08-01T23:56:07.408Z,100482.16
2022-08-01T23:58:35.894Z,100484.78
